createdAt,value
2023-10-19T00:01:59.529Z,8.68
2023-10-19T00:04:26.464Z,7.80
2023-10-19T00:06:53.588Z,8.65
2023-10-19T00:09:20.399Z,8.07
2023-10-19T00:11:48.551Z,8.73
2023-10-19T00:14:15.332Z,9.70
2023-10-19T00:16:42.594Z,9.73
2023-10-19T00:19:09.389Z,9.32
2023-10-19T00:21:36.106Z,9.50
2023-10-19T00:24:02.974Z,10.15
2023-10-19T00:26:29.793Z,10.75
2023-10-19T00:28:58.336Z,9.75
2023-10-19T00:31:25.664Z,10.95
2023-10-19T00:33:52.575Z,10.13
2023-10-19T00:36:19.358Z,10.65
2023-10-19T00:38:46.270Z,10.20
2023-10-19T00:41:13.384Z,10.85
2023-10-19T00:43:41.657Z,11.02
2023-10-19T00:46:09.851Z,9.32
2023-10-19T00:48:38.008Z,10.60
2023-10-19T00:51:05.291Z,10.83
2023-10-19T00:53:32.059Z,10.13
2023-10-19T00:55:59.086Z,10.50
2023-10-19T00:58:26.049Z,10.93
2023-10-19T01:00:52.897Z,10.95
2023-10-19T01:03:21.146Z,11.18
2023-10-19T01:05:47.953Z,11.38
2023-10-19T01:08:15.280Z,11.40
2023-10-19T01:10:42.122Z,10.40
2023-10-19T01:13:08.964Z,10.82
2023-10-19T01:15:36.011Z,11.82
2023-10-19T01:18:02.860Z,10.73
2023-10-19T01:20:33.305Z,10.52
2023-10-19T01:23:03.064Z,9.90
2023-10-19T01:25:29.828Z,10.45
2023-10-19T01:27:56.606Z,11.32
2023-10-19T01:30:23.341Z,10.15
2023-10-19T01:32:50.192Z,10.13
2023-10-19T01:35:17.212Z,10.23
2023-10-19T01:37:44.023Z,11.02
2023-10-19T01:40:12.988Z,10.52
2023-10-19T01:45:07.763Z,9.55
2023-10-19T01:47:34.588Z,8.57
2023-10-19T01:50:01.525Z,9.20
2023-10-19T01:52:28.295Z,9.07
2023-10-19T01:54:55.118Z,9.30
2023-10-19T01:57:23.273Z,9.52
2023-10-19T01:59:50.125Z,9.23
2023-10-19T02:02:17.029Z,8.88
2023-10-19T02:04:43.889Z,8.65
2023-10-19T02:07:10.678Z,9.30
2023-10-19T02:09:37.430Z,9.05
2023-10-19T02:12:04.416Z,8.85
2023-10-19T02:14:33.065Z,9.85
2023-10-19T02:19:29.514Z,7.57
2023-10-19T02:21:57.717Z,7.25
2023-10-19T02:24:24.566Z,8.40
2023-10-19T02:26:52.946Z,9.20
2023-10-19T02:29:20.038Z,9.20
2023-10-19T02:31:48.242Z,8.20
2023-10-19T02:34:15.553Z,8.00
2023-10-19T02:36:43.675Z,7.25
2023-10-19T02:39:11.930Z,8.13
2023-10-19T02:41:40.189Z,7.13
2023-10-19T02:44:09.984Z,7.32
2023-10-19T02:46:37.371Z,6.95
2023-10-19T02:49:06.660Z,7.05
2023-10-19T02:51:33.385Z,6.82
2023-10-19T02:54:00.098Z,7.00
2023-10-19T02:56:26.911Z,6.45
2023-10-19T02:58:53.708Z,6.43
2023-10-19T03:01:21.958Z,6.30
2023-10-19T03:03:51.265Z,6.13
2023-10-19T03:06:21.892Z,5.63
2023-10-19T03:08:49.634Z,5.88
2023-10-19T03:11:16.439Z,4.88
2023-10-19T03:13:43.249Z,4.60
2023-10-19T03:16:10.111Z,4.40
2023-10-19T03:18:37.244Z,4.32
2023-10-19T03:21:04.342Z,3.70
2023-10-19T03:23:32.407Z,3.30
2023-10-19T03:25:59.252Z,3.33
2023-10-19T03:28:26.024Z,3.28
2023-10-19T03:30:52.864Z,3.13
2023-10-19T03:33:19.956Z,3.08
2023-10-19T03:35:46.767Z,3.50
2023-10-19T03:38:13.497Z,3.20
2023-10-19T03:40:41.898Z,2.83
2023-10-19T03:43:08.740Z,3.30
2023-10-19T03:45:35.565Z,2.95
2023-10-19T03:48:02.376Z,2.90
2023-10-19T03:50:29.168Z,2.92
2023-10-19T03:52:56.014Z,2.88
2023-10-19T03:55:22.858Z,3.22
2023-10-19T03:57:51.009Z,2.90
2023-10-19T04:00:18.408Z,3.30
2023-10-19T04:02:48.340Z,3.13
2023-10-19T04:05:16.806Z,3.53
2023-10-19T04:07:46.179Z,2.80
2023-10-19T04:10:13.369Z,2.53
2023-10-19T04:12:42.304Z,3.50
2023-10-19T04:17:37.873Z,2.25
2023-10-19T04:20:06.015Z,2.80
2023-10-19T04:22:32.824Z,2.40
2023-10-19T04:25:00.270Z,2.80
2023-10-19T04:27:27.086Z,2.42
2023-10-19T04:29:53.825Z,2.53
2023-10-19T04:32:21.934Z,2.63
2023-10-19T04:34:48.785Z,2.40
2023-10-19T04:37:15.575Z,3.17
2023-10-19T04:39:42.385Z,2.88
2023-10-19T04:42:09.225Z,2.78
2023-10-19T04:44:35.951Z,3.50
2023-10-19T04:47:02.831Z,2.78
2023-10-19T04:49:31.169Z,2.88
2023-10-19T04:51:57.936Z,2.88
2023-10-19T04:54:24.759Z,2.70
2023-10-19T04:56:51.485Z,2.33
2023-10-19T04:59:18.313Z,3.40
2023-10-19T05:01:45.225Z,2.90
2023-10-19T05:04:12.160Z,2.95
2023-10-19T05:06:40.272Z,3.53
2023-10-19T05:09:07.091Z,3.78
2023-10-19T05:11:33.817Z,3.20
2023-10-19T05:14:00.597Z,3.30
2023-10-19T05:16:27.580Z,3.90
2023-10-19T05:18:54.408Z,3.20
2023-10-19T05:21:21.206Z,3.28
2023-10-19T05:23:49.715Z,4.07
2023-10-19T05:26:16.654Z,3.78
2023-10-19T05:28:43.502Z,4.60
2023-10-19T05:31:10.338Z,4.05
2023-10-19T05:33:37.242Z,4.10
2023-10-19T05:36:04.713Z,3.92
2023-10-19T05:38:31.525Z,4.03
2023-10-19T05:40:59.718Z,3.90
2023-10-19T05:43:26.593Z,4.95
2023-10-19T05:45:53.409Z,3.40
2023-10-19T05:48:21.397Z,3.72
2023-10-19T05:50:48.221Z,4.70
2023-10-19T05:53:14.976Z,3.78
2023-10-19T05:55:41.792Z,3.60
2023-10-19T05:58:09.929Z,3.65
2023-10-19T06:00:36.766Z,3.47
2023-10-19T06:03:04.165Z,3.28
2023-10-19T06:05:31.008Z,3.38
2023-10-19T06:07:59.493Z,3.60
2023-10-19T06:10:28.206Z,3.35
2023-10-19T06:12:55.264Z,3.47
2023-10-19T06:15:23.784Z,2.97
2023-10-19T06:17:51.511Z,3.10
2023-10-19T06:20:18.448Z,2.67
2023-10-19T06:22:45.241Z,2.67
2023-10-19T06:25:12.163Z,2.90
2023-10-19T06:27:39.037Z,3.17
2023-10-19T06:30:06.911Z,3.03
2023-10-19T06:32:35.247Z,2.67
2023-10-19T06:35:02.351Z,2.40
2023-10-19T06:37:29.386Z,2.78
2023-10-19T06:39:56.588Z,2.58
2023-10-19T06:42:23.325Z,2.70
2023-10-19T06:44:50.167Z,2.20
2023-10-19T06:47:16.972Z,2.38
2023-10-19T06:49:45.198Z,2.20
2023-10-19T06:52:11.974Z,2.45
2023-10-19T06:54:38.762Z,2.40
2023-10-19T06:57:05.498Z,3.00
2023-10-19T06:59:32.251Z,2.30
2023-10-19T07:01:59.119Z,2.33
2023-10-19T07:04:25.993Z,2.67
2023-10-19T07:06:54.112Z,2.20
2023-10-19T07:09:20.914Z,2.22
2023-10-19T07:11:47.688Z,3.22
2023-10-19T07:14:14.494Z,2.60
2023-10-19T07:16:41.479Z,2.17
2023-10-19T07:19:08.381Z,2.10
2023-10-19T07:21:35.440Z,2.15
2023-10-19T07:24:03.698Z,2.63
2023-10-19T07:26:30.507Z,2.20
2023-10-19T07:28:57.378Z,2.08
2023-10-19T07:31:24.313Z,2.20
2023-10-19T07:33:51.086Z,2.20
2023-10-19T07:36:17.852Z,2.15
2023-10-19T07:38:44.649Z,2.08
2023-10-19T07:41:12.788Z,2.10
2023-10-19T07:43:39.693Z,2.70
2023-10-19T07:46:06.505Z,2.08
2023-10-19T07:48:33.298Z,2.30
2023-10-19T07:51:00.151Z,2.40
2023-10-19T07:53:26.947Z,2.03
2023-10-19T07:55:53.819Z,2.00
2023-10-19T07:58:21.965Z,2.30
2023-10-19T08:00:48.763Z,2.28
2023-10-19T08:03:15.740Z,1.70
2023-10-19T08:05:42.743Z,2.88
2023-10-19T08:08:09.524Z,1.95
2023-10-19T08:10:36.512Z,2.03
2023-10-19T08:13:03.505Z,2.05
2023-10-19T08:15:32.125Z,2.13
2023-10-19T08:17:59.277Z,2.03
2023-10-19T08:20:26.907Z,2.10
2023-10-19T08:22:55.541Z,2.40
2023-10-19T08:25:22.790Z,2.60
2023-10-19T08:27:50.318Z,3.28
2023-10-19T08:30:19.800Z,3.72
2023-10-19T08:32:50.142Z,3.00
2023-10-19T08:35:18.466Z,3.00
2023-10-19T08:37:45.324Z,2.85
2023-10-19T08:40:13.157Z,3.00
2023-10-19T08:42:40.029Z,2.70
2023-10-19T08:45:07.763Z,2.50
2023-10-19T08:47:34.990Z,2.90
2023-10-19T08:50:03.844Z,2.65
2023-10-19T08:52:30.934Z,2.42
2023-10-19T08:54:57.825Z,2.58
2023-10-19T08:57:24.831Z,2.38
2023-10-19T08:59:51.629Z,2.30
2023-10-19T09:02:18.446Z,2.40
2023-10-19T09:04:48.359Z,2.65
2023-10-19T09:07:17.784Z,2.70
2023-10-19T09:09:45.900Z,2.85
2023-10-19T09:12:12.709Z,2.08
2023-10-19T09:14:39.566Z,2.45
2023-10-19T09:17:09.434Z,2.50
2023-10-19T09:19:38.163Z,2.60
2023-10-19T09:22:05.370Z,3.05
2023-10-19T09:24:33.905Z,3.25
2023-10-19T09:27:00.834Z,2.70
2023-10-19T09:29:27.596Z,3.33
2023-10-19T09:31:56.163Z,3.10
2023-10-19T09:34:24.288Z,2.70
2023-10-19T09:36:53.473Z,2.90
2023-10-19T09:39:20.352Z,2.78
2023-10-19T09:41:48.832Z,2.80
2023-10-19T09:44:20.574Z,2.90
2023-10-19T09:46:48.664Z,2.90
2023-10-19T09:49:15.601Z,3.33
2023-10-19T09:51:52.351Z,2.80
2023-10-19T09:54:42.788Z,3.15
2023-10-19T09:57:15.517Z,2.28
2023-10-19T09:59:45.101Z,2.67
2023-10-19T10:02:13.249Z,3.30
2023-10-19T10:04:40.869Z,3.03
2023-10-19T10:07:08.774Z,2.70
2023-10-19T10:09:37.410Z,2.50
2023-10-19T10:12:18.740Z,2.45
2023-10-19T10:14:58.715Z,1.65
2023-10-19T10:17:26.500Z,2.42
2023-10-19T10:19:55.571Z,1.55
2023-10-19T10:22:22.912Z,1.90
2023-10-19T10:24:55.452Z,2.00
2023-10-19T10:27:24.252Z,2.53
2023-10-19T10:29:58.074Z,1.27
2023-10-19T10:32:44.655Z,1.30
2023-10-19T10:35:11.521Z,1.67
2023-10-19T10:37:38.806Z,1.42
2023-10-19T10:40:07.053Z,1.65
2023-10-19T10:42:35.212Z,1.60
2023-10-19T10:45:02.125Z,2.17
2023-10-19T10:47:29.020Z,1.55
2023-10-19T10:49:57.225Z,2.00
2023-10-19T10:52:29.949Z,1.73
2023-10-19T10:54:57.588Z,1.85
2023-10-19T10:57:24.540Z,1.50
2023-10-19T11:00:05.425Z,1.70
2023-10-19T11:02:32.249Z,1.73
2023-10-19T11:04:59.257Z,1.95
2023-10-19T11:07:26.096Z,1.92
2023-10-19T11:09:54.020Z,2.13
2023-10-19T11:12:22.446Z,1.45
2023-10-19T11:14:55.778Z,2.05
2023-10-19T11:17:24.087Z,1.77
2023-10-19T11:19:51.137Z,1.90
2023-10-19T11:22:17.947Z,1.90
2023-10-19T11:24:44.747Z,1.77
2023-10-19T11:27:11.497Z,1.73
2023-10-19T11:29:38.655Z,2.22
2023-10-19T11:32:05.600Z,2.10
2023-10-19T11:34:33.864Z,2.33
2023-10-19T11:37:01.566Z,3.03
2023-10-19T11:39:28.878Z,2.90
2023-10-19T11:41:55.663Z,3.13
2023-10-19T11:44:23.691Z,2.30
2023-10-19T11:46:50.609Z,2.80
2023-10-19T11:49:17.491Z,2.28
2023-10-19T11:51:45.725Z,2.15
2023-10-19T11:54:12.531Z,2.20
2023-10-19T11:56:39.640Z,2.33
2023-10-19T11:59:06.487Z,2.22
2023-10-19T12:01:33.340Z,2.70
2023-10-19T12:04:00.183Z,2.47
2023-10-19T12:06:27.033Z,2.03
2023-10-19T12:08:55.203Z,2.38
2023-10-19T12:11:21.961Z,3.10
2023-10-19T12:13:50.225Z,2.45
2023-10-19T12:16:18.075Z,2.17
2023-10-19T12:18:45.334Z,2.40
2023-10-19T12:21:12.185Z,2.30
2023-10-19T12:23:40.230Z,2.30
2023-10-19T12:26:08.404Z,2.30
2023-10-19T12:28:35.248Z,2.63
2023-10-19T12:31:02.165Z,2.25
2023-10-19T12:33:29.310Z,2.30
2023-10-19T12:35:57.108Z,2.42
2023-10-19T12:38:24.375Z,2.45
2023-10-19T12:40:51.852Z,2.10
2023-10-19T12:43:20.113Z,2.05
2023-10-19T12:45:46.885Z,1.73
2023-10-19T12:48:13.761Z,1.90
2023-10-19T12:50:40.615Z,1.85
2023-10-19T12:53:07.716Z,1.90
2023-10-19T12:55:34.971Z,2.20
2023-10-19T12:58:01.930Z,2.42
2023-10-19T13:00:31.712Z,1.95
2023-10-19T13:03:00.614Z,2.50
2023-10-19T13:05:28.312Z,2.80
2023-10-19T13:07:55.497Z,1.80
2023-10-19T13:10:22.281Z,2.40
2023-10-19T13:12:49.114Z,1.73
2023-10-19T13:15:16.456Z,1.70
2023-10-19T13:17:44.743Z,1.80
2023-10-19T13:20:11.856Z,1.90
2023-10-19T13:22:38.653Z,3.03
2023-10-19T13:25:06.169Z,1.73
2023-10-19T13:27:32.957Z,2.03
2023-10-19T13:29:59.862Z,2.10
2023-10-19T13:32:29.876Z,2.67
2023-10-19T13:34:58.471Z,2.40
2023-10-19T13:37:25.379Z,2.35
2023-10-19T13:39:52.279Z,2.22
2023-10-19T13:42:19.071Z,2.33
2023-10-19T13:44:45.879Z,1.90
2023-10-19T13:47:12.651Z,2.30
2023-10-19T13:49:39.597Z,2.40
2023-10-19T13:52:07.770Z,2.00
2023-10-19T13:54:37.382Z,2.28
2023-10-19T13:57:04.448Z,1.92
2023-10-19T13:59:31.289Z,1.95
2023-10-19T14:01:58.097Z,1.90
2023-10-19T14:04:24.942Z,2.38
2023-10-19T14:06:51.792Z,2.10
2023-10-19T14:09:19.885Z,1.83
2023-10-19T14:11:46.777Z,2.00
2023-10-19T14:14:13.552Z,2.45
2023-10-19T14:16:40.512Z,1.95
2023-10-19T14:19:07.317Z,2.40
2023-10-19T14:21:34.108Z,2.28
2023-10-19T14:24:00.860Z,2.15
2023-10-19T14:26:28.982Z,2.53
2023-10-19T14:28:55.777Z,2.95
2023-10-19T14:31:22.639Z,2.10
2023-10-19T14:38:15.309Z,2.28
2023-10-19T14:40:42.605Z,1.90
2023-10-19T14:43:09.431Z,2.03
2023-10-19T14:45:36.265Z,2.13
2023-10-19T14:48:03.758Z,2.00
2023-10-19T14:50:31.387Z,2.13
2023-10-19T14:52:58.416Z,2.45
2023-10-19T14:55:27.088Z,1.85
2023-10-19T14:57:54.924Z,1.92
2023-10-19T15:00:22.880Z,2.00
2023-10-19T15:02:51.198Z,2.60
2023-10-19T15:05:18.752Z,2.80
2023-10-19T15:07:47.052Z,2.95
2023-10-19T15:10:14.277Z,3.28
2023-10-19T15:12:42.818Z,3.70
2023-10-19T15:15:10.619Z,2.97
2023-10-19T15:17:38.846Z,2.75
2023-10-19T15:20:07.449Z,2.95
2023-10-19T15:22:34.429Z,2.78
2023-10-19T15:25:02.075Z,2.75
2023-10-19T15:27:29.068Z,3.28
2023-10-19T15:29:57.946Z,3.13
2023-10-19T15:34:52.023Z,2.75
2023-10-19T15:37:19.377Z,3.10
2023-10-19T15:39:46.434Z,4.00
2023-10-19T15:42:13.227Z,3.40
2023-10-19T15:44:40.019Z,3.03
2023-10-19T15:47:08.403Z,3.92
2023-10-19T15:49:35.201Z,3.53
2023-10-19T15:52:01.928Z,2.70
2023-10-19T15:54:28.746Z,3.40
2023-10-19T15:56:55.513Z,3.08
2023-10-19T15:59:22.246Z,3.10
2023-10-19T16:01:49.206Z,3.50
2023-10-19T16:04:17.381Z,2.85
2023-10-19T16:06:44.147Z,3.25
2023-10-19T16:09:10.977Z,3.25
2023-10-19T16:11:38.010Z,4.15
2023-10-19T16:14:05.033Z,3.90
2023-10-19T16:16:31.902Z,4.07
2023-10-19T16:18:58.715Z,3.70
2023-10-19T16:21:26.940Z,3.60
2023-10-19T16:23:53.753Z,3.80
2023-10-19T16:26:20.704Z,3.00
2023-10-19T16:28:47.559Z,3.40
2023-10-19T16:31:15.472Z,3.20
2023-10-19T16:33:42.258Z,3.15
2023-10-19T16:36:09.104Z,3.88
2023-10-19T16:38:38.329Z,4.00
2023-10-19T16:41:05.103Z,4.20
2023-10-19T16:43:31.876Z,3.90
2023-10-19T16:46:00.018Z,3.33
2023-10-19T16:48:27.005Z,3.65
2023-10-19T16:50:53.741Z,4.05
2023-10-19T16:53:20.661Z,3.55
2023-10-19T16:55:48.811Z,4.57
2023-10-19T16:58:15.573Z,3.70
2023-10-19T17:00:42.350Z,3.70
2023-10-19T17:03:09.263Z,4.72
2023-10-19T17:05:36.029Z,5.78
2023-10-19T17:08:02.928Z,4.90
2023-10-19T17:10:29.676Z,4.00
2023-10-19T17:12:57.785Z,4.10
2023-10-19T17:15:24.734Z,4.80
2023-10-19T17:17:51.592Z,4.38
2023-10-19T17:20:18.516Z,4.35
2023-10-19T17:22:45.606Z,4.13
2023-10-19T17:25:12.366Z,3.70
2023-10-19T17:27:39.183Z,4.28
2023-10-19T17:30:08.377Z,3.42
2023-10-19T17:32:35.237Z,3.75
2023-10-19T17:35:02.224Z,3.63
2023-10-19T17:37:29.255Z,3.80
2023-10-19T17:39:56.398Z,4.30
2023-10-19T17:42:23.292Z,3.88
2023-10-19T17:44:50.057Z,3.95
2023-10-19T17:47:18.235Z,3.53
2023-10-19T17:49:45.186Z,4.32
2023-10-19T17:52:11.989Z,3.67
2023-10-19T17:54:38.745Z,3.58
2023-10-19T17:57:05.548Z,4.20
2023-10-19T17:59:33.197Z,4.20
2023-10-19T18:02:00.389Z,4.05
2023-10-19T18:04:28.873Z,3.88
2023-10-19T18:06:55.682Z,4.70
2023-10-19T18:09:22.455Z,3.88
2023-10-19T18:11:49.226Z,5.25
2023-10-19T18:14:16.073Z,4.40
2023-10-19T18:16:42.851Z,4.28
2023-10-19T18:19:09.800Z,4.47
2023-10-19T18:21:37.926Z,4.95
2023-10-19T18:24:05.067Z,6.85
2023-10-19T18:26:31.881Z,6.25
2023-10-19T18:28:58.732Z,7.85
2023-10-19T18:31:25.692Z,10.13
2023-10-19T18:33:52.554Z,11.82
2023-10-19T18:36:20.826Z,10.05
2023-10-19T18:38:48.936Z,7.70
2023-10-19T18:41:16.920Z,6.75
2023-10-19T18:43:43.869Z,5.72
2023-10-19T18:46:10.760Z,5.75
2023-10-19T18:48:37.530Z,6.03
2023-10-19T18:51:06.096Z,5.57
2023-10-19T18:53:33.530Z,5.88
2023-10-19T18:56:02.048Z,6.20
2023-10-19T18:58:28.844Z,5.53
2023-10-19T19:00:57.050Z,5.95
2023-10-19T19:03:24.591Z,7.00
2023-10-19T19:05:55.397Z,6.97
2023-10-19T19:08:22.767Z,7.32
2023-10-19T19:10:49.610Z,8.15
2023-10-19T19:13:17.794Z,9.55
2023-10-19T19:15:44.571Z,7.80
2023-10-19T19:18:11.658Z,8.20
2023-10-19T19:20:39.342Z,8.02
2023-10-19T19:23:06.195Z,7.65
2023-10-19T19:25:32.964Z,8.40
2023-10-19T19:27:59.716Z,7.93
2023-10-19T19:30:28.210Z,8.70
2023-10-19T19:32:55.102Z,8.55
2023-10-19T19:35:22.417Z,9.60
2023-10-19T19:37:49.198Z,8.98
2023-10-19T19:40:16.059Z,9.27
2023-10-19T19:42:44.252Z,8.77
2023-10-19T19:45:12.123Z,9.00
2023-10-19T19:47:41.000Z,9.20
2023-10-19T19:52:35.416Z,8.60
2023-10-19T19:55:02.213Z,9.43
2023-10-19T19:57:29.050Z,11.88
2023-10-19T19:59:55.981Z,21.08
2023-10-19T20:02:22.853Z,90.15
2023-10-19T20:04:52.924Z,43.60
2023-10-19T20:07:19.775Z,16.10
2023-10-19T20:09:46.536Z,14.52
2023-10-19T20:12:13.375Z,9.88
2023-10-19T20:14:40.191Z,10.15
2023-10-19T20:17:06.996Z,10.15
2023-10-19T20:19:33.765Z,10.63
2023-10-19T20:22:01.887Z,10.88
2023-10-19T20:24:28.692Z,8.73
2023-10-19T20:26:55.513Z,8.35
2023-10-19T20:29:22.300Z,8.15
2023-10-19T20:31:49.186Z,9.38
2023-10-19T20:34:16.029Z,9.68
2023-10-19T20:36:42.900Z,9.13
2023-10-19T20:39:10.979Z,9.98
2023-10-19T20:41:37.768Z,9.65
2023-10-19T20:44:04.946Z,9.13
2023-10-19T20:46:31.833Z,9.55
2023-10-19T20:48:58.619Z,9.57
2023-10-19T20:51:25.374Z,9.15
2023-10-19T20:53:52.164Z,9.77
2023-10-19T20:56:20.277Z,10.40
2023-10-19T20:58:47.094Z,9.07
2023-10-19T21:01:13.909Z,9.88
2023-10-19T21:03:40.835Z,10.00
2023-10-19T21:06:11.537Z,10.77
2023-10-19T21:08:38.305Z,10.98
2023-10-19T21:11:05.283Z,9.25
2023-10-19T21:13:33.538Z,10.23
2023-10-19T21:16:00.384Z,10.25
2023-10-19T21:18:27.205Z,10.05
2023-10-19T21:20:56.668Z,10.77
2023-10-19T21:23:23.950Z,10.77
2023-10-19T21:25:50.806Z,10.38
2023-10-19T21:28:17.706Z,12.70
2023-10-19T21:30:45.790Z,10.55
2023-10-19T21:33:12.694Z,11.40
2023-10-19T21:35:39.518Z,10.68
2023-10-19T21:38:06.374Z,10.07
2023-10-19T21:40:33.152Z,11.07
2023-10-19T21:42:59.889Z,10.57
2023-10-19T21:45:26.895Z,10.68
2023-10-19T21:47:56.094Z,10.50
2023-10-19T21:50:23.069Z,11.65
2023-10-19T21:52:49.996Z,11.07
2023-10-19T21:55:17.213Z,11.10
2023-10-19T21:57:44.009Z,10.60
2023-10-19T22:00:12.034Z,9.95
2023-10-19T22:02:41.490Z,10.48
2023-10-19T22:05:24.905Z,10.18
2023-10-19T22:07:52.974Z,10.43
2023-10-19T22:10:20.782Z,10.57
2023-10-19T22:12:47.948Z,10.68
2023-10-19T22:15:15.105Z,12.10
2023-10-19T22:17:41.897Z,10.68
2023-10-19T22:20:09.609Z,12.18
2023-10-19T22:22:37.741Z,11.32
2023-10-19T22:25:05.361Z,10.82
2023-10-19T22:27:32.100Z,11.18
2023-10-19T22:29:58.981Z,11.77
2023-10-19T22:32:25.760Z,11.55
2023-10-19T22:34:52.655Z,11.55
2023-10-19T22:37:19.546Z,12.60
2023-10-19T22:39:47.703Z,11.02
2023-10-19T22:42:14.448Z,11.23
2023-10-19T22:44:41.339Z,11.18
2023-10-19T22:47:08.511Z,12.13
2023-10-19T22:49:35.483Z,12.27
2023-10-19T22:52:02.262Z,12.90
2023-10-19T22:54:29.087Z,12.35
2023-10-19T22:56:57.307Z,13.45
2023-10-19T22:59:26.751Z,13.98
2023-10-19T23:01:53.670Z,13.75
2023-10-19T23:04:20.927Z,14.23
2023-10-19T23:06:47.702Z,12.63
2023-10-19T23:09:14.496Z,12.23
2023-10-19T23:11:41.329Z,13.48
2023-10-19T23:14:09.507Z,14.38
2023-10-19T23:16:36.321Z,13.45
2023-10-19T23:19:03.088Z,13.20
2023-10-19T23:21:29.849Z,13.45
2023-10-19T23:23:56.629Z,13.13
2023-10-19T23:26:23.694Z,13.55
2023-10-19T23:28:52.065Z,12.40
2023-10-19T23:31:20.490Z,12.57
2023-10-19T23:33:47.310Z,12.55
2023-10-19T23:36:14.065Z,13.07
2023-10-19T23:38:40.829Z,13.35
2023-10-19T23:41:07.736Z,13.02
2023-10-19T23:43:34.596Z,12.57
2023-10-19T23:46:05.326Z,12.65
2023-10-19T23:48:33.890Z,13.35
2023-10-19T23:51:00.676Z,11.70
2023-10-19T23:53:27.447Z,13.70
2023-10-19T23:55:54.249Z,13.52
2023-10-19T23:58:21.053Z,13.98
